Time;durP1;ratioP1;P1;durP2;ratioP2;P2;SDS_P1;SDS_P2;PMS_P1;PMS_P2;Temp;Humidity;BMP_temperature;BMP_pressure;BME280_temperature;BME280_humidity;BME280_pressure;Samples;Min_cycle;Max_cycle;Signal;HPM_P1;HPM_P2
2024/01/15 00:02:16;;;;;;;15.40;9.63;;;17.90;58.60;;;;;;4992537;28;20045;-77
2024/01/15 00:04:42;;;;;;;16.63;9.63;;;17.90;58.60;;;;;;5020657;28;20408;-77
2024/01/15 00:07:09;;;;;;;14.27;9.15;;;17.90;58.60;;;;;;5018403;28;20519;-77
2024/01/15 00:09:35;;;;;;;14.50;9.35;;;17.90;58.60;;;;;;5003093;28;20057;-77
2024/01/15 00:12:00;;;;;;;14.77;9.32;;;17.90;58.60;;;;;;5038571;28;20049;-76
2024/01/15 00:14:26;;;;;;;13.00;9.20;;;17.90;58.70;;;;;;5022113;28;20045;-76
2024/01/15 00:16:52;;;;;;;11.13;8.32;;;17.90;58.70;;;;;;5018123;28;20045;-76
2024/01/15 00:19:18;;;;;;;12.35;8.65;;;17.90;58.70;;;;;;5017344;28;20045;-77
2024/01/15 00:21:44;;;;;;;14.20;9.75;;;17.80;58.70;;;;;;5022426;28;20399;-75
2024/01/15 00:24:09;;;;;;;14.35;9.52;;;17.80;58.60;;;;;;4991548;28;20038;-75
2024/01/15 00:26:35;;;;;;;11.98;8.77;;;17.80;58.60;;;;;;5016091;28;20526;-75
2024/01/15 00:29:01;;;;;;;11.75;8.15;;;17.80;58.70;;;;;;5023211;28;20037;-76
2024/01/15 00:31:26;;;;;;;11.23;8.23;;;17.80;58.70;;;;;;5005396;28;20041;-78
2024/01/15 00:33:52;;;;;;;12.48;8.20;;;17.80;58.60;;;;;;5019195;28;20046;-78
2024/01/15 00:36:18;;;;;;;8.73;7.63;;;17.80;58.70;;;;;;5021567;28;20590;-78
2024/01/15 00:38:44;;;;;;;11.45;7.78;;;17.80;58.70;;;;;;5017027;28;20574;-78
2024/01/15 00:41:09;;;;;;;14.73;9.27;;;17.80;58.70;;;;;;5024122;28;20094;-78
2024/01/15 00:43:35;;;;;;;10.93;8.27;;;17.80;58.70;;;;;;5022664;28;20057;-78
2024/01/15 00:46:04;;;;;;;11.25;8.90;;;17.80;58.70;;;;;;4990886;28;20037;-79
2024/01/15 00:48:29;;;;;;;11.40;8.07;;;17.80;59.00;;;;;;5005631;28;20049;-79
2024/01/15 00:50:55;;;;;;;11.18;8.70;;;17.70;58.70;;;;;;5053277;28;20090;-79
2024/01/15 00:53:22;;;;;;;12.02;9.00;;;17.70;58.70;;;;;;5004368;28;20176;-79
2024/01/15 00:55:48;;;;;;;9.75;8.18;;;17.70;58.80;;;;;;5023484;28;20446;-79
2024/01/15 00:58:14;;;;;;;10.05;7.97;;;17.70;58.80;;;;;;5020444;28;20041;-79
2024/01/15 01:00:39;;;;;;;11.55;8.18;;;17.70;58.90;;;;;;5021403;28;20048;-79
2024/01/15 01:03:05;;;;;;;10.32;7.55;;;17.70;58.90;;;;;;5039960;28;20049;-79
2024/01/15 01:05:30;;;;;;;10.50;6.97;;;17.70;58.90;;;;;;5023215;28;20048;-79
2024/01/15 01:07:56;;;;;;;11.57;7.80;;;17.70;58.90;;;;;;5006824;28;20041;-79
2024/01/15 01:10:21;;;;;;;9.30;7.78;;;17.70;59.00;;;;;;4996935;28;20127;-78
2024/01/15 01:12:47;;;;;;;10.95;8.10;;;17.60;58.90;;;;;;5001311;28;20045;-79
2024/01/15 01:15:12;;;;;;;8.85;7.53;;;17.60;58.90;;;;;;5005722;28;20495;-79
2024/01/15 01:17:38;;;;;;;10.93;7.10;;;17.60;58.90;;;;;;5004923;28;20077;-79
2024/01/15 01:20:06;;;;;;;10.00;6.90;;;17.60;59.00;;;;;;5023039;28;20057;-79
2024/01/15 01:22:31;;;;;;;10.05;7.35;;;17.60;59.00;;;;;;5008046;28;20033;-79
2024/01/15 01:24:57;;;;;;;9.05;7.22;;;17.60;59.10;;;;;;5018378;28;20038;-79
2024/01/15 01:27:22;;;;;;;8.95;6.90;;;17.60;59.10;;;;;;5021765;28;20049;-79
2024/01/15 01:29:48;;;;;;;8.93;7.13;;;17.50;59.20;;;;;;5020331;28;20045;-78
2024/01/15 01:32:13;;;;;;;9.80;7.20;;;17.50;59.20;;;;;;5021467;28;20074;-78
2024/01/15 01:34:42;;;;;;;10.07;7.82;;;17.50;59.20;;;;;;5016459;28;20049;-78
2024/01/15 01:37:08;;;;;;;8.63;7.22;;;17.50;59.20;;;;;;4994568;28;20087;-78
2024/01/15 01:39:34;;;;;;;9.13;7.32;;;17.40;59.20;;;;;;5027327;28;20057;-78
2024/01/15 01:41:59;;;;;;;7.47;6.60;;;17.50;59.20;;;;;;5000171;28;20121;-78
2024/01/15 01:44:25;;;;;;;6.85;6.18;;;17.40;59.20;;;;;;5004147;28;20096;-78
2024/01/15 01:46:50;;;;;;;8.10;6.82;;;17.40;59.30;;;;;;5027014;28;20541;-78
2024/01/15 01:49:16;;;;;;;7.40;6.15;;;17.40;60.10;;;;;;4995416;28;20401;-78
2024/01/15 01:51:42;;;;;;;6.63;6.03;;;17.40;59.40;;;;;;5000624;28;20112;-78
2024/01/15 01:54:07;;;;;;;8.32;6.47;;;17.40;59.40;;;;;;5011894;28;20045;-78
2024/01/15 01:56:33;;;;;;;8.45;7.13;;;17.40;59.40;;;;;;5017308;28;20392;-78
2024/01/15 01:58:59;;;;;;;8.35;6.20;;;17.40;59.50;;;;;;5003730;28;20439;-78
2024/01/15 02:01:25;;;;;;;7.03;6.10;;;17.30;59.50;;;;;;5002176;28;20076;-78
2024/01/15 02:03:50;;;;;;;8.65;6.80;;;17.30;59.50;;;;;;5004861;28;20065;-78
2024/01/15 02:06:16;;;;;;;8.35;6.70;;;17.30;59.50;;;;;;5022800;28;20042;-80
2024/01/15 02:08:43;;;;;;;6.85;6.15;;;17.30;59.60;;;;;;5010174;28;20038;-80
2024/01/15 02:11:08;;;;;;;7.20;5.85;;;17.30;59.50;;;;;;5039722;28;20506;-80
2024/01/15 02:13:34;;;;;;;8.13;6.97;;;17.30;59.60;;;;;;5028229;28;20037;-80
2024/01/15 02:15:59;;;;;;;7.00;6.03;;;17.20;59.60;;;;;;5024174;28;20504;-79
2024/01/15 02:18:25;;;;;;;7.18;6.45;;;17.20;59.60;;;;;;5021995;28;20385;-79
2024/01/15 02:20:51;;;;;;;7.82;5.90;;;17.20;59.60;;;;;;5023893;28;20460;-79
2024/01/15 02:23:16;;;;;;;6.43;5.82;;;17.20;59.70;;;;;;5008670;28;20038;-79
2024/01/15 02:25:46;;;;;;;7.50;5.95;;;17.20;59.70;;;;;;5027500;28;20030;-79
2024/01/15 02:28:13;;;;;;;7.88;5.97;;;17.20;59.70;;;;;;5021667;28;20046;-79
2024/01/15 02:30:39;;;;;;;6.40;5.80;;;17.20;59.60;;;;;;5023771;28;20531;-79
2024/01/15 02:33:05;;;;;;;6.10;5.57;;;17.20;59.50;;;;;;5022223;28;20037;-79
2024/01/15 02:35:31;;;;;;;5.72;5.15;;;17.20;59.80;;;;;;5022560;28;20546;-79
2024/01/15 02:37:57;;;;;;;6.78;6.10;;;17.10;59.70;;;;;;5009891;28;20048;-79
2024/01/15 02:40:22;;;;;;;6.50;5.90;;;17.10;59.70;;;;;;5021904;28;20046;-79
2024/01/15 02:42:48;;;;;;;5.75;5.25;;;17.10;59.70;;;;;;5023030;28;20035;-79
2024/01/15 02:45:13;;;;;;;6.18;5.40;;;17.10;59.80;;;;;;5024562;28;20120;-79
2024/01/15 02:47:39;;;;;;;6.53;5.82;;;17.10;59.80;;;;;;4995323;28;20107;-78
2024/01/15 02:50:05;;;;;;;6.65;6.07;;;17.10;60.60;;;;;;5022985;28;20525;-78
2024/01/15 02:52:31;;;;;;;5.97;5.38;;;17.10;59.80;;;;;;5007047;28;20443;-78
2024/01/15 02:54:56;;;;;;;6.20;5.70;;;17.00;59.70;;;;;;5025006;28;20041;-78
2024/01/15 02:57:22;;;;;;;6.55;5.35;;;17.00;59.80;;;;;;5016627;28;20149;-79
2024/01/15 02:59:47;;;;;;;6.10;5.50;;;17.00;59.80;;;;;;5006955;28;20078;-78
2024/01/15 03:02:13;;;;;;;5.13;4.72;;;17.00;60.60;;;;;;4995619;28;20034;-79
2024/01/15 03:04:45;;;;;;;6.32;5.30;;;17.00;60.00;;;;;;5020054;28;20041;-78
2024/01/15 03:07:11;;;;;;;6.55;5.78;;;16.90;59.90;;;;;;5008844;28;20251;-80
2024/01/15 03:09:37;;;;;;;5.85;5.25;;;17.00;60.10;;;;;;5007792;28;20129;-79
2024/01/15 03:12:02;;;;;;;5.22;4.80;;;16.90;59.90;;;;;;4991724;28;20029;-79
2024/01/15 03:14:28;;;;;;;5.60;5.10;;;16.90;59.80;;;;;;5023576;28;20096;-79
2024/01/15 03:16:54;;;;;;;5.03;4.60;;;16.90;59.90;;;;;;5026271;28;20652;-79
2024/01/15 03:19:19;;;;;;;5.72;5.25;;;16.90;59.70;;;;;;5021516;28;20875;-79
2024/01/15 03:21:45;;;;;;;5.13;4.65;;;16.90;60.00;;;;;;5024042;28;20040;-80
2024/01/15 03:24:10;;;;;;;4.95;4.65;;;16.90;59.80;;;;;;4999765;28;20120;-79
2024/01/15 03:26:36;;;;;;;6.43;5.90;;;16.90;60.60;;;;;;5022583;28;20211;-79
2024/01/15 03:29:01;;;;;;;5.55;5.15;;;16.90;59.90;;;;;;5025634;28;20240;-80
2024/01/15 03:31:27;;;;;;;5.10;4.70;;;16.90;60.00;;;;;;5023266;28;20046;-80
2024/01/15 03:33:53;;;;;;;4.90;4.50;;;16.90;59.80;;;;;;5040613;28;20430;-80
2024/01/15 03:36:18;;;;;;;4.68;4.30;;;16.80;59.70;;;;;;5017536;28;20125;-80
2024/01/15 03:38:44;;;;;;;5.75;5.25;;;16.80;59.90;;;;;;5019224;28;20037;-80
2024/01/15 03:41:09;;;;;;;5.03;4.63;;;16.80;60.10;;;;;;5025308;28;20041;-78
2024/01/15 03:43:35;;;;;;;5.10;4.65;;;16.80;59.90;;;;;;5009680;28;20037;-79
2024/01/15 03:46:01;;;;;;;5.18;4.78;;;16.80;59.60;;;;;;5022226;28;20128;-80
2024/01/15 03:48:27;;;;;;;5.28;4.85;;;16.80;59.80;;;;;;5008023;28;20435;-80
2024/01/15 03:50:53;;;;;;;5.03;4.53;;;16.80;59.70;;;;;;5009471;28;20042;-79
2024/01/15 03:53:18;;;;;;;4.90;4.50;;;16.80;59.80;;;;;;5021730;28;20121;-79
2024/01/15 03:55:44;;;;;;;5.22;4.82;;;16.80;59.90;;;;;;5026011;28;20495;-79
2024/01/15 03:58:10;;;;;;;4.35;4.05;;;16.80;59.70;;;;;;5022101;28;20041;-79
2024/01/15 04:00:35;;;;;;;4.40;4.10;;;16.80;59.90;;;;;;5020078;28;20038;-78
2024/01/15 04:03:01;;;;;;;4.60;4.30;;;16.80;59.90;;;;;;5022720;28;20045;-78
2024/01/15 04:05:26;;;;;;;5.10;4.70;;;16.80;60.50;;;;;;5022597;28;20117;-79
2024/01/15 04:07:52;;;;;;;4.25;3.92;;;16.70;59.80;;;;;;4992682;28;20588;-80
2024/01/15 04:10:18;;;;;;;4.55;4.15;;;16.70;59.90;;;;;;5008240;28;20095;-79
2024/01/15 04:12:43;;;;;;;4.07;3.78;;;16.70;60.00;;;;;;4992670;28;20500;-79
2024/01/15 04:15:09;;;;;;;4.25;3.95;;;16.70;59.70;;;;;;5004648;28;20081;-80
2024/01/15 04:17:34;;;;;;;4.28;3.97;;;16.70;59.90;;;;;;5034139;28;20045;-80
2024/01/15 04:20:00;;;;;;;4.57;4.28;;;16.70;59.50;;;;;;5037890;28;20040;-78
2024/01/15 04:22:26;;;;;;;4.13;3.83;;;16.70;60.00;;;;;;4998041;28;20041;-78
2024/01/15 04:24:52;;;;;;;4.03;3.72;;;16.70;59.80;;;;;;5024846;28;20045;-78
2024/01/15 04:27:18;;;;;;;4.18;3.88;;;16.70;59.80;;;;;;5022009;28;20160;-78
2024/01/15 04:29:44;;;;;;;4.20;3.90;;;16.60;60.00;;;;;;5023133;28;20534;-78
2024/01/15 04:32:10;;;;;;;4.20;3.90;;;16.70;59.90;;;;;;4988241;28;20053;-78
2024/01/15 04:34:35;;;;;;;3.88;3.63;;;16.60;60.00;;;;;;5022642;28;20041;-78
2024/01/15 04:37:01;;;;;;;3.88;3.58;;;16.60;59.90;;;;;;5023218;28;20046;-78
2024/01/15 04:39:26;;;;;;;3.83;3.53;;;16.60;59.90;;;;;;5019873;28;20511;-79
2024/01/15 04:41:52;;;;;;;3.40;3.20;;;16.60;59.80;;;;;;4989073;28;20822;-78
2024/01/15 04:44:18;;;;;;;4.30;4.00;;;16.60;59.90;;;;;;4971263;28;20134;-78
2024/01/15 04:46:44;;;;;;;3.78;3.47;;;16.60;59.90;;;;;;5020708;28;20044;-78
2024/01/15 04:49:10;;;;;;;4.28;3.97;;;16.60;59.80;;;;;;4994852;28;20076;-77
2024/01/15 04:51:35;;;;;;;3.90;3.70;;;16.60;60.00;;;;;;5020720;28;20531;-78
2024/01/15 04:54:01;;;;;;;3.58;3.38;;;16.60;60.10;;;;;;5005078;28;20100;-78
2024/01/15 04:56:27;;;;;;;4.25;3.95;;;16.50;59.70;;;;;;5020877;28;20595;-79
2024/01/15 04:58:52;;;;;;;3.47;3.22;;;16.50;60.00;;;;;;5024638;28;20033;-78
2024/01/15 05:01:18;;;;;;;3.95;3.65;;;16.60;59.70;;;;;;5030147;28;20132;-78
2024/01/15 05:03:43;;;;;;;3.30;3.10;;;16.60;59.80;;;;;;5020014;28;20136;-78
2024/01/15 05:06:09;;;;;;;3.55;3.28;;;16.60;60.00;;;;;;5018645;28;20036;-78
2024/01/15 05:08:34;;;;;;;3.53;3.33;;;16.50;59.80;;;;;;5021694;28;20519;-78
2024/01/15 05:11:00;;;;;;;3.45;3.25;;;16.60;59.70;;;;;;5023205;28;20030;-79
2024/01/15 05:13:25;;;;;;;4.10;3.80;;;16.50;59.80;;;;;;5007471;28;20045;-78
2024/01/15 05:15:51;;;;;;;3.22;3.03;;;16.50;59.90;;;;;;5020134;28;20219;-78
2024/01/15 05:18:17;;;;;;;3.35;3.15;;;16.50;60.10;;;;;;4987600;28;20467;-78
2024/01/15 05:20:42;;;;;;;3.67;3.47;;;16.50;60.10;;;;;;4984991;28;20122;-79
2024/01/15 05:23:08;;;;;;;3.67;3.38;;;16.50;60.00;;;;;;5039806;28;20103;-78
2024/01/15 05:25:33;;;;;;;3.50;3.30;;;16.50;59.70;;;;;;5040349;28;20033;-78
2024/01/15 05:27:59;;;;;;;3.45;3.15;;;16.50;59.80;;;;;;5034642;28;20045;-78
2024/01/15 05:30:25;;;;;;;3.47;3.28;;;16.50;59.70;;;;;;5019913;28;20065;-79
2024/01/15 05:32:50;;;;;;;3.20;3.00;;;16.50;59.90;;;;;;4989838;28;20053;-78
2024/01/15 05:35:16;;;;;;;3.22;3.03;;;16.50;59.80;;;;;;4998788;28;20041;-78
2024/01/15 05:37:43;;;;;;;3.00;2.80;;;16.50;59.80;;;;;;5019968;28;20029;-79
2024/01/15 05:40:09;;;;;;;2.83;2.72;;;16.50;59.70;;;;;;5020407;28;20054;-79
2024/01/15 05:42:35;;;;;;;3.40;3.20;;;16.40;59.70;;;;;;4989869;28;20042;-79
2024/01/15 05:45:03;;;;;;;2.88;2.60;;;16.40;59.70;;;;;;5023077;28;20053;-79
2024/01/15 05:47:29;;;;;;;3.50;3.30;;;16.50;60.10;;;;;;5021865;28;20042;-78
2024/01/15 05:49:54;;;;;;;2.95;2.75;;;16.40;60.60;;;;;;5039678;28;20056;-78
2024/01/15 05:52:21;;;;;;;2.83;2.63;;;16.40;59.70;;;;;;5019226;28;20631;-78
2024/01/15 05:54:47;;;;;;;3.05;2.85;;;16.40;59.80;;;;;;4992229;28;20402;-78
2024/01/15 05:57:13;;;;;;;2.78;2.58;;;16.40;59.70;;;;;;5002125;28;20038;-79
2024/01/15 05:59:38;;;;;;;3.80;3.60;;;16.40;60.00;;;;;;5014193;28;20479;-79
2024/01/15 06:02:04;;;;;;;3.42;3.20;;;16.40;60.20;;;;;;5038095;28;20461;-80
2024/01/15 06:04:29;;;;;;;2.88;2.67;;;16.40;59.90;;;;;;5007742;28;20040;-79
2024/01/15 06:06:55;;;;;;;2.97;2.78;;;16.40;60.30;;;;;;5019861;28;20042;-78
2024/01/15 06:09:20;;;;;;;3.00;2.80;;;16.40;60.00;;;;;;5015498;28;20057;-78
2024/01/15 06:11:46;;;;;;;2.53;2.40;;;16.40;59.90;;;;;;5010690;28;20038;-79
2024/01/15 06:14:12;;;;;;;3.40;3.05;;;16.40;59.70;;;;;;5048756;28;20541;-79
2024/01/15 06:16:37;;;;;;;3.25;2.95;;;16.40;59.90;;;;;;5022352;28;20113;-78
2024/01/15 06:19:03;;;;;;;2.75;2.55;;;16.40;60.20;;;;;;5018355;28;20053;-79
2024/01/15 06:21:28;;;;;;;3.95;2.42;;;16.40;60.40;;;;;;5019420;28;20491;-79
2024/01/15 06:23:56;;;;;;;4.05;2.72;;;16.50;60.40;;;;;;5024348;28;20029;-80
2024/01/15 06:26:24;;;;;;;2.97;2.78;;;16.50;60.80;;;;;;5022521;28;20092;-79
2024/01/15 06:28:50;;;;;;;4.90;3.15;;;16.60;60.60;;;;;;5022612;28;20042;-80
2024/01/15 06:31:16;;;;;;;4.38;2.70;;;16.60;60.60;;;;;;5020364;28;20041;-83
2024/01/15 06:33:41;;;;;;;3.03;2.40;;;16.70;60.90;;;;;;5020355;28;20041;-83
2024/01/15 06:36:07;;;;;;;3.40;3.10;;;16.70;63.10;;;;;;5017340;28;20037;-80
2024/01/15 06:38:33;;;;;;;6.47;2.90;;;16.70;63.50;;;;;;5013278;28;20512;-83
2024/01/15 06:40:58;;;;;;;6.63;3.15;;;16.80;63.30;;;;;;5026125;28;20042;-79
2024/01/15 06:43:24;;;;;;;4.90;3.10;;;16.80;62.90;;;;;;5032709;28;20050;-81
2024/01/15 06:45:49;;;;;;;4.07;2.88;;;16.90;63.20;;;;;;4994406;28;20128;-84
2024/01/15 06:48:16;;;;;;;4.72;2.95;;;17.00;63.40;;;;;;5003765;28;20164;-83
2024/01/15 06:50:42;;;;;;;5.50;2.75;;;17.00;63.60;;;;;;5010436;28;20046;-84
2024/01/15 06:53:08;;;;;;;4.90;3.05;;;17.00;63.80;;;;;;4985381;28;20045;-85
2024/01/15 06:55:33;;;;;;;3.08;2.88;;;17.00;63.70;;;;;;5022437;28;20053;-82
2024/01/15 06:57:59;;;;;;;3.72;2.40;;;17.20;63.50;;;;;;5021795;28;20048;-80
2024/01/15 07:00:25;;;;;;;3.78;2.58;;;17.30;63.20;;;;;;5003473;28;20050;-81
2024/01/15 07:02:51;;;;;;;2.58;2.38;;;17.30;62.90;;;;;;5023691;28;20546;-81
2024/01/15 07:05:17;;;;;;;3.25;2.60;;;17.30;63.30;;;;;;5024626;28;20546;-80
2024/01/15 07:07:42;;;;;;;2.70;2.50;;;17.30;63.00;;;;;;5058406;28;20045;-81
2024/01/15 07:10:08;;;;;;;5.88;2.47;;;17.30;62.80;;;;;;5003937;28;20041;-81
2024/01/15 07:12:34;;;;;;;2.83;2.63;;;17.20;62.60;;;;;;4992739;28;20407;-81
2024/01/15 07:14:59;;;;;;;5.53;2.22;;;17.30;62.60;;;;;;5013034;28;20041;-81
2024/01/15 07:17:25;;;;;;;2.60;2.42;;;17.30;62.50;;;;;;5021710;28;20124;-81
2024/01/15 07:19:51;;;;;;;8.80;2.78;;;17.20;62.30;;;;;;5003034;28;20392;-81
2024/01/15 07:22:17;;;;;;;2.97;2.40;;;17.30;62.20;;;;;;5021503;28;20053;-81
2024/01/15 07:24:43;;;;;;;2.30;2.00;;;17.30;62.10;;;;;;5025282;28;20045;-81
2024/01/15 07:27:08;;;;;;;2.45;2.25;;;17.30;62.10;;;;;;5019131;28;20037;-80
2024/01/15 07:29:37;;;;;;;2.03;1.92;;;17.30;62.20;;;;;;5051263;28;20045;-81
2024/01/15 07:32:03;;;;;;;2.85;2.50;;;17.20;62.00;;;;;;4983921;28;20054;-81
2024/01/15 07:34:29;;;;;;;3.30;2.17;;;17.20;62.00;;;;;;5023910;28;20045;-81
2024/01/15 07:36:54;;;;;;;2.20;2.10;;;17.20;61.80;;;;;;5020282;28;20651;-81
2024/01/15 07:39:20;;;;;;;3.33;2.13;;;17.20;62.10;;;;;;4997507;28;20057;-81
2024/01/15 07:41:45;;;;;;;3.70;2.55;;;17.20;62.80;;;;;;5023742;28;20500;-81
2024/01/15 07:44:11;;;;;;;2.58;2.30;;;17.20;62.10;;;;;;5023120;28;20033;-80
2024/01/15 07:46:36;;;;;;;4.28;2.22;;;17.20;61.90;;;;;;5024221;28;20041;-80
2024/01/15 07:49:03;;;;;;;2.25;2.15;;;17.20;62.00;;;;;;5022563;28;20206;-81
2024/01/15 07:51:30;;;;;;;3.35;2.22;;;17.20;61.90;;;;;;5021432;28;20057;-81
2024/01/15 07:53:56;;;;;;;3.63;2.20;;;17.20;61.90;;;;;;5001672;28;20097;-81
2024/01/15 07:56:21;;;;;;;2.10;2.00;;;17.20;61.90;;;;;;5013594;28;20045;-81
2024/01/15 07:58:47;;;;;;;2.35;1.98;;;17.20;62.10;;;;;;5009689;28;20029;-81
2024/01/15 08:01:12;;;;;;;2.72;2.53;;;17.10;62.00;;;;;;5021549;28;20041;-80
2024/01/15 08:03:38;;;;;;;4.55;2.22;;;17.10;62.10;;;;;;5024614;28;20099;-81
2024/01/15 08:06:04;;;;;;;7.03;2.30;;;17.10;62.20;;;;;;5021816;28;20033;-81
2024/01/15 08:08:30;;;;;;;4.55;1.95;;;17.10;61.90;;;;;;5021426;28;20054;-81
2024/01/15 08:10:56;;;;;;;2.50;2.30;;;17.10;61.80;;;;;;5026205;28;20059;-81
2024/01/15 08:13:21;;;;;;;4.20;2.88;;;17.10;62.00;;;;;;4990012;28;20083;-80
2024/01/15 08:15:47;;;;;;;2.67;2.05;;;17.10;62.30;;;;;;5021129;28;20038;-81
2024/01/15 08:18:12;;;;;;;1.98;1.88;;;17.00;62.40;;;;;;4989606;28;20100;-80
2024/01/15 08:20:38;;;;;;;2.03;1.92;;;17.00;62.30;;;;;;5003640;28;20034;-81
2024/01/15 08:23:04;;;;;;;1.90;1.80;;;17.00;62.20;;;;;;5025298;28;20095;-81
2024/01/15 08:25:29;;;;;;;1.75;1.65;;;17.00;62.10;;;;;;5022695;28;20132;-80
2024/01/15 08:27:57;;;;;;;2.40;2.20;;;17.00;63.10;;;;;;5024197;28;20553;-81
2024/01/15 08:30:26;;;;;;;2.78;2.00;;;17.00;62.20;;;;;;5024372;28;20044;-81
2024/01/15 08:32:51;;;;;;;2.20;2.00;;;17.00;62.30;;;;;;5021155;28;20049;-81
2024/01/15 08:35:17;;;;;;;3.72;1.95;;;17.00;62.30;;;;;;5021807;28;20284;-81
2024/01/15 08:37:43;;;;;;;2.60;2.40;;;16.90;62.30;;;;;;5023796;28;20042;-81
2024/01/15 08:40:09;;;;;;;1.90;1.73;;;16.90;62.30;;;;;;4998600;28;20081;-81
2024/01/15 08:42:34;;;;;;;1.90;1.80;;;16.90;62.30;;;;;;5023431;28;20076;-80
2024/01/15 08:45:00;;;;;;;1.90;1.80;;;16.90;62.50;;;;;;5024817;28;20061;-81
2024/01/15 08:47:26;;;;;;;2.00;1.90;;;16.90;62.50;;;;;;5024798;28;20037;-80
2024/01/15 08:49:51;;;;;;;2.10;2.00;;;16.90;62.30;;;;;;5025134;28;20068;-80
2024/01/15 08:52:17;;;;;;;2.25;2.15;;;16.90;62.20;;;;;;5020541;28;20060;-80
2024/01/15 08:54:42;;;;;;;2.55;2.00;;;16.90;62.50;;;;;;4999159;28;20041;-80
2024/01/15 08:57:08;;;;;;;2.10;2.00;;;16.90;62.70;;;;;;4990728;28;20049;-80
2024/01/15 08:59:33;;;;;;;2.10;1.90;;;16.80;62.50;;;;;;5002794;28;20038;-80
2024/01/15 09:01:59;;;;;;;2.65;1.80;;;16.80;62.50;;;;;;5022910;28;20569;-80
2024/01/15 09:04:25;;;;;;;2.25;2.10;;;16.80;62.40;;;;;;5023183;28;20443;-80
2024/01/15 09:06:50;;;;;;;2.30;1.80;;;16.80;62.40;;;;;;5021604;28;20495;-80
2024/01/15 09:09:16;;;;;;;3.17;1.65;;;16.80;62.30;;;;;;5022870;28;20625;-80
2024/01/15 09:11:41;;;;;;;1.90;1.80;;;16.80;62.40;;;;;;5021928;28;20092;-80
2024/01/15 09:14:08;;;;;;;1.80;1.70;;;16.80;62.20;;;;;;5022795;28;20052;-80
2024/01/15 09:16:33;;;;;;;1.80;1.70;;;16.80;62.10;;;;;;5023400;28;20049;-80
2024/01/15 09:18:59;;;;;;;5.50;2.33;;;16.80;62.10;;;;;;5021706;28;20438;-80
2024/01/15 09:21:25;;;;;;;2.13;1.83;;;16.80;62.20;;;;;;5022939;28;20604;-80
2024/01/15 09:23:51;;;;;;;2.17;1.67;;;16.80;62.10;;;;;;5023009;28;20046;-82
2024/01/15 09:26:17;;;;;;;2.10;1.83;;;16.80;62.00;;;;;;5022950;28;20165;-80
2024/01/15 09:28:42;;;;;;;2.13;1.60;;;16.80;62.10;;;;;;5023757;28;20084;-80
2024/01/15 09:31:08;;;;;;;2.15;2.00;;;16.80;62.20;;;;;;5018681;28;20439;-80
2024/01/15 09:33:33;;;;;;;1.95;1.85;;;16.80;62.10;;;;;;4997159;28;20470;-80
2024/01/15 09:36:06;;;;;;;1.83;1.73;;;16.80;62.20;;;;;;5020565;28;20511;-80
2024/01/15 09:38:31;;;;;;;1.73;1.63;;;16.80;61.90;;;;;;5003683;28;20525;-80
2024/01/15 09:40:57;;;;;;;1.92;1.83;;;16.80;61.60;;;;;;5009429;28;20033;-81
2024/01/15 09:43:22;;;;;;;1.73;1.63;;;16.80;61.70;;;;;;5020018;28;20065;-80
2024/01/15 09:45:48;;;;;;;1.58;1.52;;;16.80;61.40;;;;;;4997086;28;20116;-81
2024/01/15 09:48:14;;;;;;;2.10;2.00;;;16.80;61.30;;;;;;5020997;28;20050;-80
2024/01/15 09:50:40;;;;;;;1.80;1.70;;;16.90;60.90;;;;;;5021893;28;20459;-80
2024/01/15 09:53:05;;;;;;;2.03;1.83;;;16.90;60.80;;;;;;5023009;28;20072;-80
2024/01/15 09:55:32;;;;;;;1.92;1.65;;;16.90;60.80;;;;;;5019459;28;20033;-80
2024/01/15 09:57:58;;;;;;;1.63;1.52;;;16.90;60.80;;;;;;5022196;28;20053;-80
2024/01/15 10:00:23;;;;;;;1.90;1.80;;;16.90;60.30;;;;;;5024949;28;20107;-80
2024/01/15 10:02:49;;;;;;;1.80;1.70;;;17.00;60.40;;;;;;5007892;28;20418;-80
2024/01/15 10:05:15;;;;;;;1.90;1.80;;;17.00;59.80;;;;;;5024664;28;20407;-82
2024/01/15 10:07:40;;;;;;;1.77;1.67;;;17.00;59.70;;;;;;5024673;28;20053;-81
2024/01/15 10:10:07;;;;;;;2.00;1.90;;;17.00;59.70;;;;;;5022974;28;20076;-82
2024/01/15 10:12:33;;;;;;;1.80;1.70;;;17.00;59.70;;;;;;5026071;28;20076;-82
2024/01/15 10:14:58;;;;;;;1.63;1.52;;;17.00;59.70;;;;;;5023615;28;20443;-82
2024/01/15 10:17:25;;;;;;;2.38;1.73;;;17.00;59.80;;;;;;5026374;28;20116;-82
2024/01/15 10:19:51;;;;;;;1.65;1.55;;;17.00;59.80;;;;;;5027687;28;20137;-82
2024/01/15 10:22:17;;;;;;;1.60;1.50;;;17.00;59.80;;;;;;5024643;28;20124;-81
2024/01/15 10:24:43;;;;;;;1.80;1.70;;;17.00;59.70;;;;;;5026267;28;20108;-82
2024/01/15 10:27:09;;;;;;;1.60;1.50;;;17.00;59.80;;;;;;5022706;28;20034;-81
2024/01/15 10:29:35;;;;;;;1.77;1.67;;;17.00;60.10;;;;;;5023015;28;20112;-81
2024/01/15 10:32:01;;;;;;;1.50;1.40;;;17.10;59.80;;;;;;5026719;28;20037;-82
2024/01/15 10:34:26;;;;;;;1.60;1.50;;;17.10;60.00;;;;;;5041816;28;20052;-82
2024/01/15 10:36:58;;;;;;;1.23;1.23;;;17.10;60.20;;;;;;5023833;28;20041;-82
2024/01/15 10:39:23;;;;;;;1.20;1.20;;;17.10;60.00;;;;;;5009866;28;20045;-81
2024/01/15 10:41:50;;;;;;;1.40;1.30;;;17.10;61.00;;;;;;5010018;28;20096;-82
2024/01/15 10:44:17;;;;;;;1.40;1.30;;;17.10;60.20;;;;;;5025280;28;20415;-80
2024/01/15 10:46:43;;;;;;;1.30;1.20;;;17.10;60.10;;;;;;5008495;28;20073;-82
2024/01/15 10:49:08;;;;;;;1.20;1.20;;;17.00;60.00;;;;;;4973837;28;20038;-82
2024/01/15 10:51:34;;;;;;;1.52;1.42;;;17.00;59.90;;;;;;5001211;28;20523;-81
2024/01/15 10:53:59;;;;;;;1.30;1.30;;;17.00;60.00;;;;;;5006963;28;20041;-82
2024/01/15 10:56:26;;;;;;;1.50;1.50;;;17.00;60.00;;;;;;5005497;28;20041;-83
2024/01/15 10:58:52;;;;;;;1.80;1.70;;;17.00;60.10;;;;;;5009053;28;20133;-83
2024/01/15 11:01:17;;;;;;;1.52;1.25;;;17.00;60.00;;;;;;4642102;28;10000146;-80
2024/01/15 11:03:43;;;;;;;1.33;1.23;;;17.00;60.10;;;;;;5020631;28;20053;-82
2024/01/15 11:06:19;;;;;;;1.30;1.30;;;17.00;60.60;;;;;;5008120;28;20117;-82
2024/01/15 11:08:49;;;;;;;1.25;1.20;;;17.00;60.30;;;;;;4681003;28;9999913;-81
2024/01/15 11:11:16;;;;;;;1.65;1.10;;;17.00;60.20;;;;;;4978887;28;20066;-81
2024/01/15 11:13:43;;;;;;;0.93;0.93;;;17.00;60.20;;;;;;5004728;28;20274;-81
2024/01/15 11:16:11;;;;;;;2.00;1.20;;;17.00;60.30;;;;;;4999765;28;20405;-81
2024/01/15 11:18:40;;;;;;;0.93;0.93;;;17.10;61.20;;;;;;4985480;28;20042;-80
2024/01/15 11:21:15;;;;;;;1.27;1.17;;;17.00;60.20;;;;;;4998358;28;20136;-80
2024/01/15 11:23:48;;;;;;;1.45;1.35;;;17.00;60.20;;;;;;5017912;28;20048;-80
2024/01/15 11:26:45;;;;;;;1.30;1.20;;;17.00;60.30;;;;;;5018099;28;20060;-81
2024/01/15 11:29:33;;;;;;;1.95;1.10;;;17.00;60.30;;;;;;5000770;28;20125;-81
2024/01/15 11:32:08;;;;;;;1.17;1.08;;;17.00;60.30;;;;;;5014017;28;20454;-80
2024/01/15 11:34:53;;;;;;;1.40;1.30;;;17.00;60.30;;;;;;5003559;28;20077;-82
2024/01/15 11:37:19;;;;;;;1.52;1.42;;;17.00;60.30;;;;;;5033408;28;20064;-81
2024/01/15 11:39:46;;;;;;;1.40;1.35;;;17.00;60.50;;;;;;5005978;28;20534;-81
2024/01/15 11:42:12;;;;;;;1.20;1.10;;;16.90;60.30;;;;;;4999773;28;20038;-82
2024/01/15 11:44:38;;;;;;;1.20;1.20;;;16.90;60.50;;;;;;5017847;28;20041;-82
2024/01/15 11:47:05;;;;;;;1.10;1.10;;;17.00;60.50;;;;;;5021877;28;20187;-82
2024/01/15 11:50:02;;;;;;;1.20;1.20;;;16.90;60.50;;;;;;5016013;28;20508;-81
2024/01/15 11:52:37;;;;;;;0.93;0.93;;;16.90;60.40;;;;;;5022964;28;20045;-82
2024/01/15 11:55:09;;;;;;;1.15;1.15;;;16.90;60.50;;;;;;5012057;28;20500;-82
2024/01/15 11:57:41;;;;;;;1.40;1.30;;;16.90;60.60;;;;;;5018099;28;20484;-81
2024/01/15 12:00:07;;;;;;;1.75;1.20;;;16.90;60.70;;;;;;5001697;28;20512;-82
2024/01/15 12:02:33;;;;;;;0.93;0.93;;;16.90;60.70;;;;;;4985142;28;20057;-81
2024/01/15 12:04:59;;;;;;;1.10;1.10;;;16.90;60.70;;;;;;5020751;28;20406;-81
2024/01/15 12:07:24;;;;;;;1.08;1.08;;;16.90;60.70;;;;;;5016464;28;20052;-81
2024/01/15 12:09:50;;;;;;;1.15;1.10;;;16.90;60.70;;;;;;5002455;28;20057;-81
2024/01/15 12:12:25;;;;;;;1.20;1.10;;;17.00;60.80;;;;;;5037161;28;20116;-82
2024/01/15 12:14:50;;;;;;;1.02;1.02;;;17.00;61.10;;;;;;4994440;28;20045;-81
2024/01/15 12:17:16;;;;;;;1.30;1.20;;;17.00;61.30;;;;;;5003302;28;20052;-81
2024/01/15 12:19:42;;;;;;;1.25;1.15;;;17.00;61.00;;;;;;5019156;28;20140;-81
2024/01/15 12:22:07;;;;;;;1.17;1.08;;;17.00;60.90;;;;;;5017199;28;20049;-82
2024/01/15 12:24:33;;;;;;;1.00;1.00;;;17.00;60.90;;;;;;4987799;28;20033;-82
2024/01/15 12:26:58;;;;;;;1.00;1.00;;;17.00;60.90;;;;;;5019733;28;20048;-82
2024/01/15 12:29:25;;;;;;;0.90;0.90;;;17.00;61.10;;;;;;5018353;28;20575;-82
2024/01/15 12:31:51;;;;;;;1.08;1.02;;;17.00;61.10;;;;;;5004240;28;20053;-82
2024/01/15 12:34:17;;;;;;;1.10;1.10;;;17.00;60.90;;;;;;4986762;28;20041;-82
2024/01/15 12:36:43;;;;;;;1.08;1.00;;;17.00;61.20;;;;;;4995153;28;20053;-82
2024/01/15 12:39:11;;;;;;;1.15;1.15;;;17.00;61.20;;;;;;5018088;28;20053;-82
2024/01/15 12:41:38;;;;;;;1.30;0.80;;;17.00;61.00;;;;;;4987300;28;20133;-82